createdAt,value
2019-04-20T00:00:59.607Z,7.60
2019-04-20T00:03:34.999Z,7.53
2019-04-20T00:06:01.346Z,7.67
2019-04-20T00:08:34.510Z,8.23
2019-04-20T00:11:09.318Z,8.00
2019-04-20T00:13:43.825Z,7.97
2019-04-20T00:16:04.274Z,8.40
2019-04-20T00:18:41.098Z,9.07
2019-04-20T00:21:22.753Z,8.17
2019-04-20T00:23:55.064Z,9.17
2019-04-20T00:27:02.023Z,9.23
2019-04-20T00:29:21.596Z,9.50
2019-04-20T00:31:47.801Z,8.77
2019-04-20T00:34:13.082Z,8.00
2019-04-20T00:36:34.915Z,7.87
2019-04-20T00:39:08.115Z,9.07
2019-04-20T00:41:44.147Z,9.33
2019-04-20T00:44:13.028Z,9.60
2019-04-20T00:46:51.139Z,9.00
2019-04-20T00:49:25.450Z,8.97
2019-04-20T00:52:10.748Z,9.60
2019-04-20T00:54:13.691Z,9.23
2019-04-20T00:56:43.365Z,8.97
2019-04-20T00:59:25.980Z,9.13
2019-04-20T01:02:03.695Z,9.33
2019-04-20T01:04:38.875Z,9.60
2019-04-20T01:07:23.351Z,10.90
2019-04-20T01:10:00.484Z,9.40
2019-04-20T01:12:33.804Z,9.93
2019-04-20T01:15:05.567Z,10.13
2019-04-20T01:17:32.461Z,9.73
2019-04-20T01:20:01.847Z,9.30
2019-04-20T01:22:42.742Z,9.90
2019-04-20T01:25:11.201Z,9.37
2019-04-20T01:27:51.541Z,9.50
2019-04-20T01:30:20.105Z,9.57
2019-04-20T01:32:55.332Z,11.37
2019-04-20T01:35:24.778Z,9.77
2019-04-20T01:38:01.172Z,9.60
2019-04-20T01:40:13.055Z,9.87
2019-04-20T01:42:42.688Z,10.73
2019-04-20T01:45:18.020Z,10.00
2019-04-20T01:47:48.879Z,9.20
2019-04-20T01:50:21.179Z,8.73
2019-04-20T01:52:58.026Z,9.50
2019-04-20T01:55:41.487Z,9.83
2019-04-20T01:58:37.769Z,8.47
2019-04-20T02:01:13.580Z,8.70
2019-04-20T02:03:47.132Z,8.67
2019-04-20T02:06:18.828Z,9.00
2019-04-20T02:08:51.724Z,8.43
2019-04-20T02:11:25.596Z,8.63
2019-04-20T02:13:55.992Z,8.77
2019-04-20T02:16:28.609Z,10.60
2019-04-20T02:19:09.287Z,8.97
2019-04-20T02:21:45.295Z,8.00
2019-04-20T02:24:02.320Z,8.83
2019-04-20T02:26:30.115Z,9.87
2019-04-20T02:29:24.877Z,8.87
2019-04-20T02:32:13.725Z,8.10
2019-04-20T02:34:57.822Z,8.67
2019-04-20T02:38:03.043Z,7.33
2019-04-20T02:40:39.757Z,8.60
2019-04-20T02:45:36.627Z,9.50
2019-04-20T02:48:06.574Z,11.70
2019-04-20T02:50:36.454Z,9.90
2019-04-20T02:53:13.714Z,10.47
2019-04-20T02:55:41.825Z,10.40
2019-04-20T03:00:29.717Z,9.70
2019-04-20T03:02:53.078Z,9.30
2019-04-20T03:05:23.684Z,9.43
2019-04-20T03:08:03.542Z,9.07
2019-04-20T03:10:43.086Z,8.90
2019-04-20T03:13:10.599Z,9.70
2019-04-20T03:15:38.178Z,8.53
2019-04-20T03:18:09.764Z,8.40
2019-04-20T03:20:41.742Z,8.80
2019-04-20T03:23:26.503Z,8.80
2019-04-20T03:26:05.398Z,9.13
2019-04-20T03:28:54.204Z,8.90
2019-04-20T03:34:35.736Z,9.07
2019-04-20T03:36:42.620Z,12.87
2019-04-20T03:39:06.425Z,9.80
2019-04-20T03:41:24.515Z,8.67
2019-04-20T03:43:45.751Z,10.80
2019-04-20T03:46:19.168Z,9.43
2019-04-20T03:48:59.807Z,9.07
2019-04-20T03:51:39.781Z,9.90
2019-04-20T03:54:13.181Z,9.70
2019-04-20T03:57:12.490Z,10.40
2019-04-20T03:59:41.298Z,9.07
2019-04-20T04:03:02.781Z,10.70
2019-04-20T04:05:38.161Z,10.40
2019-04-20T04:08:05.140Z,10.40
2019-04-20T04:10:40.979Z,9.53
2019-04-20T04:13:12.035Z,10.53
2019-04-20T04:15:51.327Z,11.37
2019-04-20T04:18:24.671Z,9.90
2019-04-20T04:20:56.554Z,12.00
2019-04-20T04:23:36.616Z,10.10
2019-04-20T04:26:08.539Z,8.73
2019-04-20T04:28:42.367Z,11.33
2019-04-20T04:31:11.926Z,9.97
2019-04-20T04:33:55.949Z,14.27
2019-04-20T04:36:14.037Z,9.93
2019-04-20T04:38:51.799Z,9.40
2019-04-20T04:41:24.017Z,12.83
2019-04-20T04:43:55.211Z,12.67
2019-04-20T04:46:01.825Z,11.50
2019-04-20T04:48:37.519Z,11.77
2019-04-20T04:51:12.886Z,16.80
2019-04-20T04:53:46.715Z,12.30
2019-04-20T04:56:11.677Z,11.60
2019-04-20T04:58:38.442Z,10.90
2019-04-20T05:01:14.806Z,11.10
2019-04-20T05:04:02.878Z,11.17
2019-04-20T05:06:34.423Z,11.27
2019-04-20T05:08:58.489Z,19.10
2019-04-20T05:11:25.748Z,13.83
2019-04-20T05:14:03.092Z,15.53
2019-04-20T05:16:46.052Z,11.77
2019-04-20T05:19:19.323Z,13.17
2019-04-20T05:24:56.915Z,14.30
2019-04-20T05:27:46.677Z,15.23
2019-04-20T05:29:57.005Z,14.23
2019-04-20T05:32:36.140Z,12.50
2019-04-20T05:35:23.759Z,12.83
2019-04-20T05:37:59.552Z,14.73
2019-04-20T05:40:23.353Z,12.47
2019-04-20T05:42:52.359Z,12.40
2019-04-20T05:45:21.994Z,14.40
2019-04-20T05:47:55.219Z,15.13
2019-04-20T05:50:31.582Z,14.70
2019-04-20T05:55:35.975Z,12.93
2019-04-20T05:58:10.087Z,12.13
2019-04-20T06:00:40.620Z,14.90
2019-04-20T06:03:05.665Z,16.77
2019-04-20T06:05:45.925Z,12.53
2019-04-20T06:08:15.318Z,11.37
2019-04-20T06:10:45.572Z,10.23
2019-04-20T06:13:17.536Z,9.27
2019-04-20T06:16:01.385Z,10.20
2019-04-20T06:18:38.102Z,9.70
2019-04-20T06:21:23.846Z,16.77
2019-04-20T06:23:56.472Z,9.73
2019-04-20T06:26:44.232Z,9.47
2019-04-20T06:28:51.976Z,9.13
2019-04-20T06:31:31.301Z,9.73
2019-04-20T06:36:54.266Z,9.73
2019-04-20T06:39:30.936Z,7.83
2019-04-20T06:42:09.878Z,8.33
2019-04-20T06:44:32.129Z,7.83
2019-04-20T06:49:33.196Z,11.90
2019-04-20T06:52:21.648Z,8.83
2019-04-20T06:55:05.459Z,9.63
2019-04-20T06:57:43.148Z,16.50
2019-04-20T07:00:15.523Z,8.90
2019-04-20T07:02:44.699Z,9.10
2019-04-20T07:05:22.357Z,8.20
2019-04-20T07:07:50.461Z,9.37
2019-04-20T07:10:19.376Z,8.30
2019-04-20T07:12:45.038Z,9.33
2019-04-20T07:15:17.724Z,8.87
2019-04-20T07:17:57.649Z,7.40
2019-04-20T07:20:46.308Z,7.30
2019-04-20T07:23:18.249Z,6.67
2019-04-20T07:25:42.249Z,6.33
2019-04-20T07:28:12.888Z,5.53
2019-04-20T07:30:43.696Z,5.40
2019-04-20T07:33:15.706Z,6.63
2019-04-20T07:35:41.749Z,6.13
2019-04-20T07:40:47.311Z,6.93
2019-04-20T07:43:17.161Z,6.10
2019-04-20T07:45:44.252Z,6.50
2019-04-20T07:48:21.199Z,5.47
2019-04-20T07:50:40.819Z,5.60
2019-04-20T07:53:18.277Z,5.60
2019-04-20T07:55:54.056Z,7.00
2019-04-20T07:58:19.814Z,5.30
2019-04-20T08:01:09.053Z,9.13
2019-04-20T08:03:47.097Z,6.60
2019-04-20T08:06:15.670Z,6.67
2019-04-20T08:08:55.710Z,4.50
2019-04-20T08:11:27.246Z,5.53
2019-04-20T08:14:05.891Z,6.23
2019-04-20T08:16:41.091Z,4.80
2019-04-20T08:18:59.765Z,4.70
2019-04-20T08:21:39.156Z,4.47
2019-04-20T08:24:02.592Z,4.53
2019-04-20T08:26:23.516Z,5.30
2019-04-20T08:28:56.925Z,4.40
2019-04-20T08:31:51.453Z,4.80
2019-04-20T08:34:31.307Z,4.83
2019-04-20T08:37:01.069Z,5.43
2019-04-20T08:42:00.419Z,5.07
2019-04-20T08:47:14.859Z,5.93
2019-04-20T08:49:45.474Z,5.50
2019-04-20T08:54:34.485Z,6.13
2019-04-20T08:56:53.651Z,7.33
2019-04-20T08:59:21.086Z,6.00
2019-04-20T09:01:51.106Z,5.10
2019-04-20T09:04:33.014Z,5.00
2019-04-20T09:07:04.228Z,5.50
2019-04-20T09:09:49.436Z,7.93
2019-04-20T09:12:11.553Z,4.70
2019-04-20T09:14:28.231Z,5.37
2019-04-20T09:17:07.079Z,4.77
2019-04-20T09:19:41.718Z,5.23
2019-04-20T09:22:32.263Z,5.07
2019-04-20T09:25:25.058Z,5.00
2019-04-20T09:27:33.987Z,6.57
2019-04-20T09:30:13.729Z,4.77
2019-04-20T09:32:45.311Z,5.20
2019-04-20T09:35:20.565Z,6.40
2019-04-20T09:37:57.147Z,4.40
2019-04-20T09:40:30.996Z,5.97
2019-04-20T09:42:57.187Z,5.60
2019-04-20T09:45:39.940Z,6.77
2019-04-20T09:48:15.790Z,5.87
2019-04-20T09:51:00.876Z,4.83
2019-04-20T09:53:24.753Z,4.90
2019-04-20T09:55:59.017Z,5.30
2019-04-20T09:58:21.316Z,4.40
2019-04-20T10:00:58.241Z,4.93
2019-04-20T10:03:16.543Z,4.60
2019-04-20T10:05:47.456Z,4.43
2019-04-20T10:08:17.603Z,5.33
2019-04-20T10:10:48.937Z,6.07
2019-04-20T10:13:19.547Z,7.27
2019-04-20T10:15:50.011Z,5.13
2019-04-20T10:18:19.780Z,4.83
2019-04-20T10:20:49.588Z,5.20
2019-04-20T10:23:20.471Z,5.83
2019-04-20T10:25:50.889Z,5.00
2019-04-20T10:28:21.535Z,4.63
2019-04-20T10:30:51.055Z,5.37
2019-04-20T10:33:21.645Z,5.37
2019-04-20T10:35:51.838Z,7.47
2019-04-20T10:38:25.514Z,10.30
2019-04-20T10:41:05.356Z,7.13
2019-04-20T10:43:26.174Z,5.03
2019-04-20T10:45:57.094Z,5.27
2019-04-20T10:48:27.020Z,7.17
2019-04-20T10:50:56.895Z,8.20
2019-04-20T10:53:26.388Z,4.60
2019-04-20T10:55:55.793Z,4.80
2019-04-20T10:58:25.331Z,4.70
2019-04-20T11:00:55.733Z,4.67
2019-04-20T11:03:25.186Z,4.47
2019-04-20T11:05:54.834Z,5.47
2019-04-20T11:08:24.524Z,4.60
2019-04-20T11:11:03.421Z,4.30
2019-04-20T11:13:25.571Z,19.00
2019-04-20T11:15:55.052Z,5.00
2019-04-20T11:18:25.059Z,5.13
2019-04-20T11:20:55.341Z,7.07
2019-04-20T11:23:24.808Z,4.43
2019-04-20T11:25:54.173Z,5.20
2019-04-20T11:28:24.032Z,4.63
2019-04-20T11:30:54.262Z,4.23
2019-04-20T11:33:24.546Z,4.60
2019-04-20T11:35:54.949Z,4.40
2019-04-20T11:38:24.488Z,4.57
2019-04-20T11:41:06.278Z,4.37
2019-04-20T11:43:26.054Z,4.10
2019-04-20T11:45:56.535Z,4.23
2019-04-20T11:48:25.934Z,4.73
2019-04-20T11:50:55.839Z,4.50
2019-04-20T11:53:26.877Z,4.37
2019-04-20T11:55:56.530Z,6.53
2019-04-20T11:58:26.154Z,5.50
2019-04-20T12:01:06.251Z,4.33
2019-04-20T12:03:32.801Z,6.03
2019-04-20T12:06:01.638Z,4.40
2019-04-20T12:08:32.155Z,5.20
2019-04-20T12:11:12.017Z,4.07
2019-04-20T12:13:32.240Z,5.93
2019-04-20T12:16:01.682Z,3.97
2019-04-20T12:18:31.667Z,6.40
2019-04-20T12:21:01.190Z,6.30
2019-04-20T12:23:30.699Z,6.03
2019-04-20T12:26:00.214Z,6.13
2019-04-20T12:28:29.702Z,5.17
2019-04-20T12:31:05.276Z,4.10
2019-04-20T12:33:30.655Z,4.27
2019-04-20T12:36:00.504Z,4.57
2019-04-20T12:38:30.791Z,5.80
2019-04-20T12:41:03.142Z,4.10
2019-04-20T12:43:31.905Z,4.23
2019-04-20T12:46:02.240Z,4.47
2019-04-20T12:48:31.864Z,4.20
2019-04-20T12:51:01.645Z,4.40
2019-04-20T12:53:32.753Z,4.07
2019-04-20T12:56:02.367Z,4.00
2019-04-20T12:58:32.546Z,4.13
2019-04-20T13:01:02.575Z,4.40
2019-04-20T13:03:31.995Z,4.73
2019-04-20T13:06:01.847Z,4.53
2019-04-20T13:08:36.888Z,4.27
2019-04-20T13:11:10.968Z,4.58
2019-04-20T13:13:52.409Z,4.47
2019-04-20T13:16:28.148Z,6.55
2019-04-20T13:19:03.527Z,4.43
2019-04-20T13:21:33.198Z,3.93
2019-04-20T13:24:03.256Z,4.20
2019-04-20T13:26:33.288Z,7.97
2019-04-20T13:29:02.847Z,4.60
2019-04-20T13:31:33.538Z,5.20
2019-04-20T13:34:03.679Z,5.17
2019-04-20T13:36:34.457Z,3.70
2019-04-20T13:39:06.023Z,4.40
2019-04-20T13:41:35.772Z,3.70
2019-04-20T13:44:06.577Z,3.90
2019-04-20T13:46:36.843Z,4.23
2019-04-20T13:49:07.008Z,4.10
2019-04-20T13:51:37.063Z,4.00
2019-04-20T13:54:13.240Z,4.67
2019-04-20T13:56:38.048Z,4.93
2019-04-20T13:59:12.852Z,4.67
2019-04-20T14:02:08.907Z,4.70
2019-04-20T14:04:42.743Z,4.03
2019-04-20T14:07:15.064Z,4.90
2019-04-20T14:09:43.665Z,4.17
2019-04-20T14:12:22.472Z,6.43
2019-04-20T14:14:44.447Z,4.05
2019-04-20T14:17:15.049Z,6.93
2019-04-20T14:19:45.226Z,4.07
2019-04-20T14:22:15.254Z,4.20
2019-04-20T14:24:46.848Z,5.43
2019-04-20T14:27:17.098Z,3.90
2019-04-20T14:29:46.616Z,3.77
2019-04-20T14:32:16.832Z,4.30
2019-04-20T14:34:47.070Z,5.93
2019-04-20T14:37:17.163Z,5.23
2019-04-20T14:39:47.982Z,5.63
2019-04-20T14:42:27.859Z,4.40
2019-04-20T14:44:49.983Z,4.78
2019-04-20T14:47:19.688Z,3.72
2019-04-20T14:49:49.069Z,5.67
2019-04-20T14:52:19.633Z,5.15
2019-04-20T14:54:49.791Z,3.58
2019-04-20T14:57:19.388Z,3.80
2019-04-20T14:59:53.811Z,5.80
2019-04-20T15:02:26.422Z,3.80
2019-04-20T15:04:56.972Z,3.65
2019-04-20T15:07:26.744Z,4.27
2019-04-20T15:09:57.103Z,4.00
2019-04-20T15:12:38.863Z,3.70
2019-04-20T15:14:58.758Z,4.27
2019-04-20T15:17:43.735Z,3.90
2019-04-20T15:20:33.495Z,3.70
2019-04-20T15:23:09.625Z,6.70
2019-04-20T15:25:40.244Z,8.47
2019-04-20T15:28:10.416Z,4.50
2019-04-20T15:30:40.387Z,5.13
2019-04-20T15:33:09.883Z,4.70
2019-04-20T15:35:40.072Z,4.20
2019-04-20T15:38:09.603Z,5.13
2019-04-20T15:40:39.422Z,4.10
2019-04-20T15:43:14.412Z,4.43
2019-04-20T15:45:41.238Z,3.80
2019-04-20T15:48:12.058Z,4.70
2019-04-20T15:50:45.759Z,4.47
2019-04-20T15:53:15.696Z,4.00
2019-04-20T15:55:46.979Z,4.23
2019-04-20T15:58:16.482Z,4.10
2019-04-20T16:00:46.671Z,4.43
2019-04-20T16:03:29.822Z,4.00
2019-04-20T16:06:03.437Z,4.70
2019-04-20T16:08:34.764Z,4.13
2019-04-20T16:11:04.865Z,3.50
2019-04-20T16:13:39.697Z,4.17
2019-04-20T16:16:07.695Z,4.53
2019-04-20T16:18:38.985Z,3.43
2019-04-20T16:21:14.232Z,3.67
2019-04-20T16:24:01.226Z,4.10
2019-04-20T16:26:49.699Z,4.17
2019-04-20T16:29:19.816Z,3.70
2019-04-20T16:31:50.857Z,5.37
2019-04-20T16:34:21.389Z,4.27
2019-04-20T16:36:54.397Z,4.37
2019-04-20T16:39:22.826Z,4.60
2019-04-20T16:41:52.286Z,4.27
2019-04-20T16:44:23.095Z,5.13
2019-04-20T16:46:52.628Z,4.47
2019-04-20T16:49:23.342Z,4.80
2019-04-20T16:51:52.925Z,6.63
2019-04-20T16:54:23.703Z,4.70
2019-04-20T16:56:53.354Z,6.27
2019-04-20T16:59:22.761Z,5.03
2019-04-20T17:01:52.146Z,5.13
2019-04-20T17:04:26.930Z,5.83
2019-04-20T17:07:16.516Z,5.20
2019-04-20T17:09:47.365Z,13.77
2019-04-20T17:12:17.814Z,6.67
2019-04-20T17:14:47.719Z,6.53
2019-04-20T17:17:21.849Z,6.77
2019-04-20T17:19:51.563Z,7.57
2019-04-20T17:22:21.503Z,7.60
2019-04-20T17:24:51.494Z,9.77
2019-04-20T17:27:39.104Z,7.67
2019-04-20T17:30:27.425Z,8.03
2019-04-20T17:33:00.484Z,7.50
2019-04-20T17:35:41.491Z,8.83
2019-04-20T17:38:02.804Z,8.30
2019-04-20T17:40:52.613Z,9.37
2019-04-20T17:43:11.174Z,11.37
2019-04-20T17:45:44.590Z,11.67
2019-04-20T17:48:18.591Z,11.40
2019-04-20T17:50:58.980Z,9.63
2019-04-20T17:53:29.366Z,7.50
2019-04-20T17:55:53.054Z,10.23
2019-04-20T17:58:27.940Z,7.00
2019-04-20T18:01:25.618Z,6.57
2019-04-20T18:04:16.146Z,7.30
2019-04-20T18:06:33.572Z,6.83
2019-04-20T18:09:02.163Z,5.90
2019-04-20T18:11:21.806Z,10.27
2019-04-20T18:13:58.354Z,8.47
2019-04-20T18:16:46.560Z,8.77
2019-04-20T18:19:21.728Z,11.57
2019-04-20T18:21:59.632Z,13.33
2019-04-20T18:24:49.891Z,12.67
2019-04-20T18:27:26.384Z,14.97
2019-04-20T18:29:54.517Z,14.17
2019-04-20T18:32:23.081Z,17.33
2019-04-20T18:35:00.820Z,12.07
2019-04-20T18:37:28.402Z,10.43
2019-04-20T18:40:05.091Z,11.73
2019-04-20T18:42:34.910Z,14.77
2019-04-20T18:45:17.372Z,14.00
2019-04-20T18:47:55.076Z,11.87
2019-04-20T18:50:16.520Z,13.87
2019-04-20T18:52:39.942Z,15.60
2019-04-20T18:55:17.278Z,13.07
2019-04-20T18:57:44.458Z,17.10
2019-04-20T19:00:24.582Z,15.33
2019-04-20T19:02:54.429Z,15.20
2019-04-20T19:05:24.044Z,11.10
2019-04-20T19:07:59.881Z,12.70
2019-04-20T19:10:30.865Z,11.43
2019-04-20T19:13:20.295Z,12.67
2019-04-20T19:16:13.347Z,10.97
2019-04-20T19:18:57.306Z,11.83
2019-04-20T19:21:15.227Z,11.43
2019-04-20T19:23:53.343Z,14.57
2019-04-20T19:26:20.555Z,11.60
2019-04-20T19:28:53.919Z,14.43
2019-04-20T19:31:35.136Z,11.37
2019-04-20T19:34:16.945Z,12.03
2019-04-20T19:36:31.962Z,11.37
2019-04-20T19:39:06.070Z,10.10
2019-04-20T19:41:36.264Z,11.50
2019-04-20T19:44:07.351Z,9.50
2019-04-20T19:49:08.161Z,10.53
2019-04-20T19:51:49.364Z,10.70
2019-04-20T19:54:24.011Z,9.97
2019-04-20T19:56:47.052Z,10.47
2019-04-20T19:59:12.792Z,10.23
2019-04-20T20:01:33.759Z,10.97
2019-04-20T20:04:06.402Z,11.83
2019-04-20T20:06:43.622Z,11.67
2019-04-20T20:09:11.182Z,10.43
2019-04-20T20:11:42.529Z,9.80
2019-04-20T20:14:12.992Z,10.30
2019-04-20T20:16:59.835Z,12.07
2019-04-20T20:19:29.494Z,12.47
2019-04-20T20:21:59.058Z,13.40
2019-04-20T20:24:17.417Z,12.27
2019-04-20T20:26:53.423Z,13.97
2019-04-20T20:29:27.734Z,12.67
2019-04-20T20:32:01.811Z,10.30
2019-04-20T20:34:28.759Z,12.83
2019-04-20T20:36:59.792Z,14.07
2019-04-20T20:39:28.309Z,13.77
2019-04-20T20:42:09.042Z,17.00
2019-04-20T20:44:38.242Z,12.03
2019-04-20T20:47:10.612Z,14.13
2019-04-20T20:49:47.051Z,14.93
2019-04-20T20:52:17.343Z,12.83
2019-04-20T20:54:46.319Z,15.10
2019-04-20T20:57:08.942Z,14.03
2019-04-20T20:59:46.736Z,15.50
2019-04-20T21:02:14.278Z,16.00
2019-04-20T21:04:37.703Z,14.50
2019-04-20T21:07:07.142Z,12.13
2019-04-20T21:09:37.583Z,14.53
2019-04-20T21:12:14.051Z,15.47
2019-04-20T21:14:42.158Z,16.40
2019-04-20T21:17:19.585Z,12.47
2019-04-20T21:20:02.860Z,13.27
2019-04-20T21:22:27.274Z,11.03
2019-04-20T21:24:51.467Z,13.43
2019-04-20T21:27:23.916Z,12.97
2019-04-20T21:29:57.859Z,11.90
2019-04-20T21:32:26.143Z,9.83
2019-04-20T21:35:01.571Z,10.47
2019-04-20T21:37:27.277Z,9.70
2019-04-20T21:40:00.537Z,17.33
2019-04-20T21:42:34.483Z,16.10
2019-04-20T21:45:06.981Z,14.27
2019-04-20T21:47:35.751Z,19.53
2019-04-20T21:50:17.373Z,20.27
2019-04-20T21:52:40.829Z,17.67
2019-04-20T21:55:08.021Z,14.40
2019-04-20T21:57:44.722Z,16.23
2019-04-20T22:00:23.757Z,18.53
2019-04-20T22:02:52.156Z,17.30
2019-04-20T22:05:30.363Z,17.40
2019-04-20T22:08:03.322Z,17.00
2019-04-20T22:10:31.184Z,19.67
2019-04-20T22:13:01.036Z,21.17
2019-04-20T22:15:34.534Z,21.57
2019-04-20T22:18:07.726Z,18.30
2019-04-20T22:20:46.875Z,18.50
2019-04-20T22:23:15.702Z,21.97
2019-04-20T22:25:54.523Z,20.97
2019-04-20T22:28:08.606Z,19.20
2019-04-20T22:30:38.100Z,24.13
2019-04-20T22:33:16.605Z,21.40
2019-04-20T22:35:51.570Z,21.83
2019-04-20T22:38:55.836Z,22.00
2019-04-20T22:41:26.071Z,20.70
2019-04-20T22:43:56.655Z,21.77
2019-04-20T22:46:31.744Z,23.60
2019-04-20T22:49:17.380Z,19.23
2019-04-20T22:51:46.197Z,24.93
2019-04-20T22:54:20.217Z,21.40
2019-04-20T22:56:54.024Z,25.60
2019-04-20T22:59:13.858Z,23.63
2019-04-20T23:01:46.470Z,22.03
2019-04-20T23:04:14.879Z,22.33
2019-04-20T23:06:50.129Z,24.93
2019-04-20T23:09:18.843Z,23.47
2019-04-20T23:11:53.741Z,21.80
2019-04-20T23:14:24.651Z,24.27
2019-04-20T23:16:56.135Z,26.00
2019-04-20T23:19:34.603Z,25.63
2019-04-20T23:22:01.308Z,25.30
2019-04-20T23:24:29.053Z,23.47
2019-04-20T23:26:59.464Z,21.83
2019-04-20T23:29:32.731Z,21.43
2019-04-20T23:32:04.903Z,20.50
2019-04-20T23:34:33.896Z,20.00
2019-04-20T23:37:03.015Z,21.63
2019-04-20T23:39:39.745Z,22.53
2019-04-20T23:42:07.560Z,21.07
2019-04-20T23:44:45.778Z,19.90
2019-04-20T23:47:30.062Z,18.90
2019-04-20T23:50:16.369Z,20.40
2019-04-20T23:52:53.363Z,19.40
2019-04-20T23:55:08.515Z,18.87
2019-04-20T23:57:37.738Z,17.47
